Huvudsida
METAR-TAF:

METAR-TAF

Flygplatser :

Ålesunds flygplats. Vigra

Ålesund, Norge

latitud: 62-34N, longitud: 006-07E, höjd: 2 m

Aktuellt väderrapport

Denna rapport gjordes för 15 minuter sedan, klockan 15:20 UTC
Vind 13 kt från syd
Temperatur 11°C
Fuktighet 66%
Tryck 1015 hPa
Sikt 10 km eller mer
Få moln på en höjd av 3800 ft
Brutna moln på en höjd av 7000 ft

METAR: ENAL 201520Z 19013KT 9999 FEW038 BKN070 11/05 Q1015

Tid: 17:35 (15:35 UTC)

Väderprognos

Denna rapport gjordes för 1 timme och 35 minuter sedan, klockan 14:00 UTC
Prognos gäller från 20 kl. 15 UTC till 20 kl. 22 UTC
Vind 15 kt från syd/sydväst
Sikt 10 km eller mer
Brutna moln på en höjd av 4000 ft
lätt regn
Sannolikhet 30%
från 20 kl. 15 UTC till 20 kl. 22 UTC
Vind 20 kt från syd i byarna ända upp till 30 kt
Brutna moln på en höjd av 1400 ft
regn

TAF: ENAL 201400Z 2015/2022 20015KT 9999 -RA BKN040 PROB30 2015/2022 19020G30KT RA BKN014

Aktuella väderrapporter och prognoser från 4000 flygplatser (METAR- och TAF-rapporter).

De tillgängliga stationerna syns som gula och röda prickar på kartan.

För musen över prickarna för att se namnen på stationerna.

Klicka sedan för att få väderrapporter och prognoser.

För att ändra kartan: Klicka på de gröna knapparna med ett svart kors på för att zooma in; den gröna knappen med ett streck på för att zooma ut; eller på de gröna pilarna för angränsande kartor.


METAR-TAF: